sensor_id;sensor_type;location;lat;lon;timestamp;P1;durP1;ratioP1;P2;durP2;ratioP2
38238;SDS011;24035;48.900;9.188;2023-04-29T00:00:18;2.42;;;0.90;;
38238;SDS011;24035;48.900;9.188;2023-04-29T00:03:05;2.17;;;0.75;;
38238;SDS011;24035;48.900;9.188;2023-04-29T00:05:51;3.88;;;0.90;;
38238;SDS011;24035;48.900;9.188;2023-04-29T00:08:37;2.15;;;0.80;;
38238;SDS011;24035;48.900;9.188;2023-04-29T00:11:22;2.05;;;0.65;;
38238;SDS011;24035;48.900;9.188;2023-04-29T00:14:08;1.77;;;0.80;;
38238;SDS011;24035;48.900;9.188;2023-04-29T00:16:54;2.20;;;0.80;;
38238;SDS011;24035;48.900;9.188;2023-04-29T00:19:41;2.67;;;1.05;;
38238;SDS011;24035;48.900;9.188;2023-04-29T00:22:27;2.40;;;0.80;;
38238;SDS011;24035;48.900;9.188;2023-04-29T00:25:14;2.42;;;0.85;;
38238;SDS011;24035;48.900;9.188;2023-04-29T00:28:01;2.72;;;0.80;;
38238;SDS011;24035;48.900;9.188;2023-04-29T00:30:47;3.80;;;1.30;;
38238;SDS011;24035;48.900;9.188;2023-04-29T00:33:33;3.70;;;1.30;;
38238;SDS011;24035;48.900;9.188;2023-04-29T00:36:19;2.92;;;1.10;;
38238;SDS011;24035;48.900;9.188;2023-04-29T00:39:05;2.42;;;0.93;;
38238;SDS011;24035;48.900;9.188;2023-04-29T00:41:52;5.03;;;1.15;;
38238;SDS011;24035;48.900;9.188;2023-04-29T00:44:38;2.38;;;1.00;;
38238;SDS011;24035;48.900;9.188;2023-04-29T00:47:24;4.18;;;1.40;;
38238;SDS011;24035;48.900;9.188;2023-04-29T00:50:10;5.95;;;1.60;;
38238;SDS011;24035;48.900;9.188;2023-04-29T00:52:56;2.85;;;1.13;;
38238;SDS011;24035;48.900;9.188;2023-04-29T00:55:43;3.17;;;1.30;;
38238;SDS011;24035;48.900;9.188;2023-04-29T00:58:30;3.45;;;1.13;;
38238;SDS011;24035;48.900;9.188;2023-04-29T01:01:19;2.95;;;1.35;;
38238;SDS011;24035;48.900;9.188;2023-04-29T01:04:06;2.92;;;1.38;;
38238;SDS011;24035;48.900;9.188;2023-04-29T01:13:15;3.63;;;1.25;;
38238;SDS011;24035;48.900;9.188;2023-04-29T01:16:03;2.55;;;1.20;;
38238;SDS011;24035;48.900;9.188;2023-04-29T01:18:59;3.55;;;1.55;;
38238;SDS011;24035;48.900;9.188;2023-04-29T01:21:47;3.15;;;1.40;;
38238;SDS011;24035;48.900;9.188;2023-04-29T01:24:33;3.92;;;1.45;;
38238;SDS011;24035;48.900;9.188;2023-04-29T01:27:27;4.85;;;1.75;;
38238;SDS011;24035;48.900;9.188;2023-04-29T01:33:26;3.95;;;1.60;;
38238;SDS011;24035;48.900;9.188;2023-04-29T01:39:56;3.35;;;1.60;;
38238;SDS011;24035;48.900;9.188;2023-04-29T01:43:01;3.05;;;1.45;;
38238;SDS011;24035;48.900;9.188;2023-04-29T01:45:49;4.28;;;1.15;;
38238;SDS011;24035;48.900;9.188;2023-04-29T01:48:37;4.80;;;1.45;;
38238;SDS011;24035;48.900;9.188;2023-04-29T01:51:23;3.30;;;1.70;;
38238;SDS011;24035;48.900;9.188;2023-04-29T01:54:09;3.42;;;1.80;;
38238;SDS011;24035;48.900;9.188;2023-04-29T01:56:55;3.08;;;1.30;;
38238;SDS011;24035;48.900;9.188;2023-04-29T01:59:42;6.20;;;1.20;;
38238;SDS011;24035;48.900;9.188;2023-04-29T02:02:28;3.05;;;1.40;;
38238;SDS011;24035;48.900;9.188;2023-04-29T02:05:14;4.47;;;1.83;;
38238;SDS011;24035;48.900;9.188;2023-04-29T02:08:00;3.20;;;1.50;;
38238;SDS011;24035;48.900;9.188;2023-04-29T02:10:50;6.07;;;1.45;;
38238;SDS011;24035;48.900;9.188;2023-04-29T02:13:37;4.03;;;2.03;;
38238;SDS011;24035;48.900;9.188;2023-04-29T02:16:23;6.38;;;1.85;;
38238;SDS011;24035;48.900;9.188;2023-04-29T02:19:09;3.35;;;1.60;;
38238;SDS011;24035;48.900;9.188;2023-04-29T02:21:55;3.90;;;1.60;;
38238;SDS011;24035;48.900;9.188;2023-04-29T02:24:41;3.72;;;1.40;;
38238;SDS011;24035;48.900;9.188;2023-04-29T02:27:27;4.25;;;1.70;;
38238;SDS011;24035;48.900;9.188;2023-04-29T02:30:13;5.10;;;1.40;;
38238;SDS011;24035;48.900;9.188;2023-04-29T02:32:58;3.80;;;1.50;;
38238;SDS011;24035;48.900;9.188;2023-04-29T02:35:44;4.40;;;1.80;;
38238;SDS011;24035;48.900;9.188;2023-04-29T02:38:30;4.90;;;2.05;;
38238;SDS011;24035;48.900;9.188;2023-04-29T02:41:16;4.93;;;1.70;;
38238;SDS011;24035;48.900;9.188;2023-04-29T02:44:02;4.45;;;1.52;;
38238;SDS011;24035;48.900;9.188;2023-04-29T02:46:48;4.38;;;1.90;;
38238;SDS011;24035;48.900;9.188;2023-04-29T02:49:34;5.13;;;1.40;;
38238;SDS011;24035;48.900;9.188;2023-04-29T02:52:20;3.53;;;1.40;;
38238;SDS011;24035;48.900;9.188;2023-04-29T02:55:06;3.97;;;1.60;;
38238;SDS011;24035;48.900;9.188;2023-04-29T02:57:53;3.58;;;1.27;;
38238;SDS011;24035;48.900;9.188;2023-04-29T03:00:42;3.78;;;1.60;;
38238;SDS011;24035;48.900;9.188;2023-04-29T03:03:28;3.65;;;1.58;;
38238;SDS011;24035;48.900;9.188;2023-04-29T03:06:14;3.08;;;1.50;;
38238;SDS011;24035;48.900;9.188;2023-04-29T03:09:00;3.38;;;1.30;;
38238;SDS011;24035;48.900;9.188;2023-04-29T03:11:46;3.63;;;1.50;;
38238;SDS011;24035;48.900;9.188;2023-04-29T03:14:32;4.05;;;1.52;;
38238;SDS011;24035;48.900;9.188;2023-04-29T03:17:18;3.58;;;1.23;;
38238;SDS011;24035;48.900;9.188;2023-04-29T03:20:04;3.05;;;1.35;;
38238;SDS011;24035;48.900;9.188;2023-04-29T03:22:50;4.10;;;1.52;;
38238;SDS011;24035;48.900;9.188;2023-04-29T03:25:36;5.78;;;1.60;;
38238;SDS011;24035;48.900;9.188;2023-04-29T03:28:22;3.38;;;1.52;;
38238;SDS011;24035;48.900;9.188;2023-04-29T03:31:08;4.00;;;1.50;;
38238;SDS011;24035;48.900;9.188;2023-04-29T03:33:56;4.20;;;1.48;;
38238;SDS011;24035;48.900;9.188;2023-04-29T03:36:42;3.20;;;1.30;;
38238;SDS011;24035;48.900;9.188;2023-04-29T03:39:28;3.75;;;1.67;;
38238;SDS011;24035;48.900;9.188;2023-04-29T03:42:16;4.20;;;1.60;;
38238;SDS011;24035;48.900;9.188;2023-04-29T03:45:02;3.22;;;1.42;;
38238;SDS011;24035;48.900;9.188;2023-04-29T03:47:49;3.28;;;1.48;;
38238;SDS011;24035;48.900;9.188;2023-04-29T03:50:35;4.78;;;1.52;;
38238;SDS011;24035;48.900;9.188;2023-04-29T03:53:21;3.08;;;1.30;;
38238;SDS011;24035;48.900;9.188;2023-04-29T03:56:07;2.95;;;1.13;;
38238;SDS011;24035;48.900;9.188;2023-04-29T03:58:53;2.80;;;1.15;;
38238;SDS011;24035;48.900;9.188;2023-04-29T04:01:39;3.42;;;1.60;;
38238;SDS011;24035;48.900;9.188;2023-04-29T04:04:25;3.80;;;1.42;;
38238;SDS011;24035;48.900;9.188;2023-04-29T04:07:11;4.63;;;1.42;;
38238;SDS011;24035;48.900;9.188;2023-04-29T04:09:56;3.28;;;1.45;;
38238;SDS011;24035;48.900;9.188;2023-04-29T04:12:43;3.38;;;1.55;;
38238;SDS011;24035;48.900;9.188;2023-04-29T04:15:28;6.32;;;2.15;;
38238;SDS011;24035;48.900;9.188;2023-04-29T04:18:14;3.70;;;1.60;;
38238;SDS011;24035;48.900;9.188;2023-04-29T04:21:04;3.13;;;1.27;;
38238;SDS011;24035;48.900;9.188;2023-04-29T04:23:54;4.28;;;1.70;;
38238;SDS011;24035;48.900;9.188;2023-04-29T04:26:40;2.85;;;1.15;;
38238;SDS011;24035;48.900;9.188;2023-04-29T04:29:26;4.45;;;1.85;;
38238;SDS011;24035;48.900;9.188;2023-04-29T04:32:12;2.88;;;1.10;;
38238;SDS011;24035;48.900;9.188;2023-04-29T04:34:58;3.35;;;1.50;;
38238;SDS011;24035;48.900;9.188;2023-04-29T04:37:44;3.60;;;1.50;;
38238;SDS011;24035;48.900;9.188;2023-04-29T04:40:30;2.88;;;1.40;;
38238;SDS011;24035;48.900;9.188;2023-04-29T04:43:16;3.85;;;1.80;;
38238;SDS011;24035;48.900;9.188;2023-04-29T04:46:12;5.28;;;1.63;;
38238;SDS011;24035;48.900;9.188;2023-04-29T04:48:59;2.78;;;1.27;;
38238;SDS011;24035;48.900;9.188;2023-04-29T04:51:45;4.78;;;1.52;;
38238;SDS011;24035;48.900;9.188;2023-04-29T04:54:31;3.47;;;1.40;;
38238;SDS011;24035;48.900;9.188;2023-04-29T04:57:17;2.95;;;1.58;;
38238;SDS011;24035;48.900;9.188;2023-04-29T05:00:03;5.03;;;1.60;;
38238;SDS011;24035;48.900;9.188;2023-04-29T05:02:49;2.75;;;1.45;;
38238;SDS011;24035;48.900;9.188;2023-04-29T05:05:36;4.15;;;1.52;;
38238;SDS011;24035;48.900;9.188;2023-04-29T05:08:22;4.22;;;1.80;;
38238;SDS011;24035;48.900;9.188;2023-04-29T05:11:14;5.35;;;1.80;;
38238;SDS011;24035;48.900;9.188;2023-04-29T05:14:01;3.70;;;1.52;;
38238;SDS011;24035;48.900;9.188;2023-04-29T05:16:47;5.13;;;1.85;;
38238;SDS011;24035;48.900;9.188;2023-04-29T05:19:33;3.08;;;1.48;;
38238;SDS011;24035;48.900;9.188;2023-04-29T05:22:19;3.75;;;2.03;;
38238;SDS011;24035;48.900;9.188;2023-04-29T05:25:05;4.85;;;1.90;;
38238;SDS011;24035;48.900;9.188;2023-04-29T05:27:51;4.47;;;1.80;;
38238;SDS011;24035;48.900;9.188;2023-04-29T05:30:37;4.78;;;2.38;;
38238;SDS011;24035;48.900;9.188;2023-04-29T05:33:23;3.90;;;1.70;;
38238;SDS011;24035;48.900;9.188;2023-04-29T05:36:09;3.30;;;1.52;;
38238;SDS011;24035;48.900;9.188;2023-04-29T05:38:55;3.92;;;1.77;;
38238;SDS011;24035;48.900;9.188;2023-04-29T05:41:41;3.85;;;1.70;;
38238;SDS011;24035;48.900;9.188;2023-04-29T05:44:27;2.53;;;1.13;;
38238;SDS011;24035;48.900;9.188;2023-04-29T05:47:13;3.85;;;1.60;;
38238;SDS011;24035;48.900;9.188;2023-04-29T05:49:59;5.30;;;2.15;;
38238;SDS011;24035;48.900;9.188;2023-04-29T05:52:45;6.95;;;2.00;;
38238;SDS011;24035;48.900;9.188;2023-04-29T05:55:31;7.10;;;2.20;;
38238;SDS011;24035;48.900;9.188;2023-04-29T05:58:17;8.15;;;1.73;;
38238;SDS011;24035;48.900;9.188;2023-04-29T06:01:02;3.88;;;1.60;;
38238;SDS011;24035;48.900;9.188;2023-04-29T06:03:48;3.17;;;1.42;;
38238;SDS011;24035;48.900;9.188;2023-04-29T06:06:35;2.95;;;1.30;;
38238;SDS011;24035;48.900;9.188;2023-04-29T06:09:21;3.05;;;1.25;;
38238;SDS011;24035;48.900;9.188;2023-04-29T06:12:11;3.85;;;1.50;;
38238;SDS011;24035;48.900;9.188;2023-04-29T06:14:57;3.42;;;1.50;;
38238;SDS011;24035;48.900;9.188;2023-04-29T06:17:43;3.42;;;1.40;;
38238;SDS011;24035;48.900;9.188;2023-04-29T06:20:29;5.13;;;1.58;;
38238;SDS011;24035;48.900;9.188;2023-04-29T06:23:15;4.43;;;1.65;;
38238;SDS011;24035;48.900;9.188;2023-04-29T06:26:01;4.07;;;1.67;;
38238;SDS011;24035;48.900;9.188;2023-04-29T06:28:46;3.67;;;1.88;;
38238;SDS011;24035;48.900;9.188;2023-04-29T06:31:32;2.88;;;1.30;;
38238;SDS011;24035;48.900;9.188;2023-04-29T06:34:18;3.53;;;1.42;;
38238;SDS011;24035;48.900;9.188;2023-04-29T06:37:04;3.20;;;1.38;;
38238;SDS011;24035;48.900;9.188;2023-04-29T06:39:50;3.45;;;1.40;;
38238;SDS011;24035;48.900;9.188;2023-04-29T06:42:36;7.75;;;1.27;;
38238;SDS011;24035;48.900;9.188;2023-04-29T06:45:22;3.13;;;1.35;;
38238;SDS011;24035;48.900;9.188;2023-04-29T06:48:09;2.78;;;1.13;;
38238;SDS011;24035;48.900;9.188;2023-04-29T06:50:56;3.05;;;1.10;;
38238;SDS011;24035;48.900;9.188;2023-04-29T06:53:42;2.50;;;1.17;;
38238;SDS011;24035;48.900;9.188;2023-04-29T06:56:28;2.10;;;1.00;;
38238;SDS011;24035;48.900;9.188;2023-04-29T06:59:14;3.72;;;1.33;;
38238;SDS011;24035;48.900;9.188;2023-04-29T07:02:00;2.65;;;1.10;;
38238;SDS011;24035;48.900;9.188;2023-04-29T07:04:46;2.95;;;1.10;;
38238;SDS011;24035;48.900;9.188;2023-04-29T07:07:33;3.75;;;1.17;;
38238;SDS011;24035;48.900;9.188;2023-04-29T07:10:19;1.67;;;0.70;;
38238;SDS011;24035;48.900;9.188;2023-04-29T07:13:05;3.25;;;1.20;;
38238;SDS011;24035;48.900;9.188;2023-04-29T07:15:51;2.50;;;0.98;;
38238;SDS011;24035;48.900;9.188;2023-04-29T07:18:37;6.43;;;1.23;;
38238;SDS011;24035;48.900;9.188;2023-04-29T07:21:23;2.95;;;1.10;;
38238;SDS011;24035;48.900;9.188;2023-04-29T07:24:09;2.30;;;0.90;;
38238;SDS011;24035;48.900;9.188;2023-04-29T07:26:55;2.05;;;0.90;;
38238;SDS011;24035;48.900;9.188;2023-04-29T07:29:41;2.15;;;0.73;;
38238;SDS011;24035;48.900;9.188;2023-04-29T07:32:27;4.30;;;1.42;;
38238;SDS011;24035;48.900;9.188;2023-04-29T07:35:13;2.97;;;1.08;;
38238;SDS011;24035;48.900;9.188;2023-04-29T07:37:59;2.20;;;0.95;;
38238;SDS011;24035;48.900;9.188;2023-04-29T07:40:45;2.67;;;0.90;;
38238;SDS011;24035;48.900;9.188;2023-04-29T07:43:31;1.92;;;0.80;;
38238;SDS011;24035;48.900;9.188;2023-04-29T07:46:17;2.63;;;0.90;;
38238;SDS011;24035;48.900;9.188;2023-04-29T07:49:03;2.33;;;0.90;;
38238;SDS011;24035;48.900;9.188;2023-04-29T07:51:51;2.80;;;0.95;;
38238;SDS011;24035;48.900;9.188;2023-04-29T07:54:37;2.05;;;0.90;;
38238;SDS011;24035;48.900;9.188;2023-04-29T07:57:23;3.15;;;1.10;;
38238;SDS011;24035;48.900;9.188;2023-04-29T08:00:09;4.45;;;1.00;;
38238;SDS011;24035;48.900;9.188;2023-04-29T08:02:55;2.65;;;0.90;;
38238;SDS011;24035;48.900;9.188;2023-04-29T08:05:41;1.92;;;0.90;;
38238;SDS011;24035;48.900;9.188;2023-04-29T08:08:29;3.20;;;1.20;;
38238;SDS011;24035;48.900;9.188;2023-04-29T08:11:16;4.40;;;0.98;;
38238;SDS011;24035;48.900;9.188;2023-04-29T08:14:03;2.20;;;0.90;;
38238;SDS011;24035;48.900;9.188;2023-04-29T08:16:49;1.95;;;1.00;;
38238;SDS011;24035;48.900;9.188;2023-04-29T08:19:35;2.63;;;1.00;;
38238;SDS011;24035;48.900;9.188;2023-04-29T08:22:21;3.00;;;1.10;;
38238;SDS011;24035;48.900;9.188;2023-04-29T08:25:07;2.03;;;0.93;;
38238;SDS011;24035;48.900;9.188;2023-04-29T08:27:53;2.92;;;0.90;;
38238;SDS011;24035;48.900;9.188;2023-04-29T08:30:39;2.13;;;0.82;;
38238;SDS011;24035;48.900;9.188;2023-04-29T08:33:25;2.03;;;0.82;;
38238;SDS011;24035;48.900;9.188;2023-04-29T08:36:11;2.65;;;0.95;;
38238;SDS011;24035;48.900;9.188;2023-04-29T08:38:58;3.28;;;1.08;;
38238;SDS011;24035;48.900;9.188;2023-04-29T08:41:44;2.55;;;0.80;;
38238;SDS011;24035;48.900;9.188;2023-04-29T08:44:33;2.72;;;0.85;;
38238;SDS011;24035;48.900;9.188;2023-04-29T08:47:20;1.73;;;0.77;;
38238;SDS011;24035;48.900;9.188;2023-04-29T08:50:08;1.95;;;0.90;;
38238;SDS011;24035;48.900;9.188;2023-04-29T08:52:54;2.35;;;0.85;;
38238;SDS011;24035;48.900;9.188;2023-04-29T08:55:41;2.55;;;0.98;;
38238;SDS011;24035;48.900;9.188;2023-04-29T08:58:31;2.33;;;1.13;;
38238;SDS011;24035;48.900;9.188;2023-04-29T09:01:20;3.75;;;1.10;;
38238;SDS011;24035;48.900;9.188;2023-04-29T09:04:10;2.65;;;1.15;;
38238;SDS011;24035;48.900;9.188;2023-04-29T09:07:05;2.65;;;1.17;;
38238;SDS011;24035;48.900;9.188;2023-04-29T09:09:52;3.63;;;1.33;;
38238;SDS011;24035;48.900;9.188;2023-04-29T09:12:39;5.90;;;1.42;;
38238;SDS011;24035;48.900;9.188;2023-04-29T09:15:25;3.53;;;1.17;;
38238;SDS011;24035;48.900;9.188;2023-04-29T09:18:11;2.35;;;0.98;;
38238;SDS011;24035;48.900;9.188;2023-04-29T09:21:18;3.72;;;1.27;;
38238;SDS011;24035;48.900;9.188;2023-04-29T09:24:05;2.70;;;1.20;;
38238;SDS011;24035;48.900;9.188;2023-04-29T09:26:51;2.30;;;1.05;;
38238;SDS011;24035;48.900;9.188;2023-04-29T09:29:37;2.33;;;0.98;;
38238;SDS011;24035;48.900;9.188;2023-04-29T09:32:23;3.35;;;1.23;;
38238;SDS011;24035;48.900;9.188;2023-04-29T09:35:26;2.78;;;1.30;;
38238;SDS011;24035;48.900;9.188;2023-04-29T09:38:13;2.25;;;1.00;;
38238;SDS011;24035;48.900;9.188;2023-04-29T09:41:00;2.67;;;1.17;;
38238;SDS011;24035;48.900;9.188;2023-04-29T09:44:05;2.85;;;1.13;;
38238;SDS011;24035;48.900;9.188;2023-04-29T09:49:46;3.28;;;1.35;;
38238;SDS011;24035;48.900;9.188;2023-04-29T09:52:40;3.22;;;1.38;;
38238;SDS011;24035;48.900;9.188;2023-04-29T09:55:26;3.15;;;1.30;;
38238;SDS011;24035;48.900;9.188;2023-04-29T09:58:26;3.00;;;1.25;;
38238;SDS011;24035;48.900;9.188;2023-04-29T10:01:15;2.85;;;1.27;;
38238;SDS011;24035;48.900;9.188;2023-04-29T10:04:05;3.20;;;1.38;;
38238;SDS011;24035;48.900;9.188;2023-04-29T10:06:55;2.95;;;1.20;;
38238;SDS011;24035;48.900;9.188;2023-04-29T10:09:41;3.63;;;1.42;;
38238;SDS011;24035;48.900;9.188;2023-04-29T10:12:29;3.25;;;1.30;;
38238;SDS011;24035;48.900;9.188;2023-04-29T10:15:28;3.63;;;1.77;;
38238;SDS011;24035;48.900;9.188;2023-04-29T10:18:33;4.95;;;1.40;;
38238;SDS011;24035;48.900;9.188;2023-04-29T10:21:28;4.25;;;1.50;;
38238;SDS011;24035;48.900;9.188;2023-04-29T10:24:17;3.65;;;1.17;;
38238;SDS011;24035;48.900;9.188;2023-04-29T10:27:08;2.83;;;1.13;;
38238;SDS011;24035;48.900;9.188;2023-04-29T10:29:56;3.22;;;1.42;;
38238;SDS011;24035;48.900;9.188;2023-04-29T10:32:43;5.07;;;1.60;;
38238;SDS011;24035;48.900;9.188;2023-04-29T10:35:30;2.85;;;1.30;;
38238;SDS011;24035;48.900;9.188;2023-04-29T10:38:51;4.97;;;1.58;;
38238;SDS011;24035;48.900;9.188;2023-04-29T10:41:36;3.33;;;1.30;;
38238;SDS011;24035;48.900;9.188;2023-04-29T10:44:30;3.92;;;1.52;;
38238;SDS011;24035;48.900;9.188;2023-04-29T10:47:18;3.15;;;1.42;;
38238;SDS011;24035;48.900;9.188;2023-04-29T10:50:05;3.33;;;1.45;;
38238;SDS011;24035;48.900;9.188;2023-04-29T10:52:51;4.63;;;1.60;;
38238;SDS011;24035;48.900;9.188;2023-04-29T10:55:39;3.15;;;1.20;;
38238;SDS011;24035;48.900;9.188;2023-04-29T10:58:35;3.00;;;1.40;;
38238;SDS011;24035;48.900;9.188;2023-04-29T11:01:30;4.72;;;1.40;;
38238;SDS011;24035;48.900;9.188;2023-04-29T11:04:42;4.00;;;1.88;;
38238;SDS011;24035;48.900;9.188;2023-04-29T11:08:12;4.82;;;2.58;;
38238;SDS011;24035;48.900;9.188;2023-04-29T11:11:00;4.93;;;2.40;;
38238;SDS011;24035;48.900;9.188;2023-04-29T11:13:46;5.63;;;2.83;;
38238;SDS011;24035;48.900;9.188;2023-04-29T11:16:32;4.30;;;2.20;;
38238;SDS011;24035;48.900;9.188;2023-04-29T11:19:22;5.70;;;3.00;;
38238;SDS011;24035;48.900;9.188;2023-04-29T11:22:11;5.95;;;2.78;;
38238;SDS011;24035;48.900;9.188;2023-04-29T11:25:06;5.25;;;2.15;;
38238;SDS011;24035;48.900;9.188;2023-04-29T11:27:53;4.88;;;2.40;;
38238;SDS011;24035;48.900;9.188;2023-04-29T11:30:41;4.80;;;2.58;;
38238;SDS011;24035;48.900;9.188;2023-04-29T11:33:30;4.63;;;2.55;;
38238;SDS011;24035;48.900;9.188;2023-04-29T11:36:17;4.60;;;2.35;;
38238;SDS011;24035;48.900;9.188;2023-04-29T11:39:03;5.53;;;2.47;;
38238;SDS011;24035;48.900;9.188;2023-04-29T11:41:49;5.32;;;2.80;;
38238;SDS011;24035;48.900;9.188;2023-04-29T11:44:36;6.45;;;2.60;;
38238;SDS011;24035;48.900;9.188;2023-04-29T11:47:29;5.20;;;2.80;;
38238;SDS011;24035;48.900;9.188;2023-04-29T11:50:16;6.03;;;2.58;;
38238;SDS011;24035;48.900;9.188;2023-04-29T11:53:04;4.68;;;2.50;;
38238;SDS011;24035;48.900;9.188;2023-04-29T11:55:53;5.55;;;2.78;;
38238;SDS011;24035;48.900;9.188;2023-04-29T11:58:40;4.72;;;2.50;;
38238;SDS011;24035;48.900;9.188;2023-04-29T12:01:28;5.03;;;2.60;;
38238;SDS011;24035;48.900;9.188;2023-04-29T12:04:14;5.03;;;2.15;;
38238;SDS011;24035;48.900;9.188;2023-04-29T12:07:01;3.85;;;2.05;;
38238;SDS011;24035;48.900;9.188;2023-04-29T12:09:48;4.25;;;2.10;;
38238;SDS011;24035;48.900;9.188;2023-04-29T12:12:34;5.72;;;2.40;;
38238;SDS011;24035;48.900;9.188;2023-04-29T12:15:20;3.88;;;2.08;;
38238;SDS011;24035;48.900;9.188;2023-04-29T12:18:07;4.88;;;2.70;;
38238;SDS011;24035;48.900;9.188;2023-04-29T12:20:53;5.53;;;2.65;;
38238;SDS011;24035;48.900;9.188;2023-04-29T12:23:40;4.18;;;2.10;;
38238;SDS011;24035;48.900;9.188;2023-04-29T12:26:29;5.72;;;2.55;;
38238;SDS011;24035;48.900;9.188;2023-04-29T12:29:15;5.03;;;2.75;;
38238;SDS011;24035;48.900;9.188;2023-04-29T12:32:07;5.05;;;2.50;;
38238;SDS011;24035;48.900;9.188;2023-04-29T12:35:01;5.32;;;2.60;;
38238;SDS011;24035;48.900;9.188;2023-04-29T12:37:47;5.60;;;2.53;;
38238;SDS011;24035;48.900;9.188;2023-04-29T12:40:35;4.63;;;2.53;;
38238;SDS011;24035;48.900;9.188;2023-04-29T12:43:27;4.80;;;2.65;;
38238;SDS011;24035;48.900;9.188;2023-04-29T12:46:13;5.35;;;2.72;;
38238;SDS011;24035;48.900;9.188;2023-04-29T12:49:00;6.40;;;2.67;;
38238;SDS011;24035;48.900;9.188;2023-04-29T12:51:48;6.20;;;2.33;;
38238;SDS011;24035;48.900;9.188;2023-04-29T12:54:35;4.82;;;2.30;;
38238;SDS011;24035;48.900;9.188;2023-04-29T12:57:21;5.18;;;2.38;;
38238;SDS011;24035;48.900;9.188;2023-04-29T13:00:09;5.15;;;2.35;;
38238;SDS011;24035;48.900;9.188;2023-04-29T13:02:56;7.00;;;2.88;;
38238;SDS011;24035;48.900;9.188;2023-04-29T13:05:41;5.55;;;2.50;;
38238;SDS011;24035;48.900;9.188;2023-04-29T13:08:27;4.85;;;2.40;;
38238;SDS011;24035;48.900;9.188;2023-04-29T13:11:13;4.28;;;2.17;;
38238;SDS011;24035;48.900;9.188;2023-04-29T13:13:59;5.25;;;2.38;;
38238;SDS011;24035;48.900;9.188;2023-04-29T13:16:45;5.63;;;2.78;;
38238;SDS011;24035;48.900;9.188;2023-04-29T13:19:31;5.85;;;2.78;;
38238;SDS011;24035;48.900;9.188;2023-04-29T13:22:17;5.65;;;2.72;;
38238;SDS011;24035;48.900;9.188;2023-04-29T13:25:03;8.63;;;3.25;;
38238;SDS011;24035;48.900;9.188;2023-04-29T13:27:49;5.78;;;2.72;;
38238;SDS011;24035;48.900;9.188;2023-04-29T13:30:35;7.00;;;3.38;;
38238;SDS011;24035;48.900;9.188;2023-04-29T13:33:21;7.15;;;3.10;;
38238;SDS011;24035;48.900;9.188;2023-04-29T13:36:07;6.50;;;3.10;;
38238;SDS011;24035;48.900;9.188;2023-04-29T13:38:53;5.80;;;3.05;;
38238;SDS011;24035;48.900;9.188;2023-04-29T13:41:39;6.90;;;3.33;;
38238;SDS011;24035;48.900;9.188;2023-04-29T13:44:25;6.10;;;3.50;;
38238;SDS011;24035;48.900;9.188;2023-04-29T13:47:11;6.57;;;2.88;;
38238;SDS011;24035;48.900;9.188;2023-04-29T13:49:58;7.00;;;3.38;;
38238;SDS011;24035;48.900;9.188;2023-04-29T13:52:43;6.68;;;2.92;;
38238;SDS011;24035;48.900;9.188;2023-04-29T13:55:30;6.50;;;2.65;;
38238;SDS011;24035;48.900;9.188;2023-04-29T13:58:18;7.28;;;3.38;;
38238;SDS011;24035;48.900;9.188;2023-04-29T14:01:04;5.75;;;3.05;;
38238;SDS011;24035;48.900;9.188;2023-04-29T14:03:50;7.03;;;3.20;;
38238;SDS011;24035;48.900;9.188;2023-04-29T14:06:36;5.72;;;3.10;;
38238;SDS011;24035;48.900;9.188;2023-04-29T14:09:22;7.10;;;2.95;;
38238;SDS011;24035;48.900;9.188;2023-04-29T14:12:08;8.30;;;2.95;;
38238;SDS011;24035;48.900;9.188;2023-04-29T14:14:55;9.65;;;3.38;;
38238;SDS011;24035;48.900;9.188;2023-04-29T14:17:41;6.57;;;2.92;;
38238;SDS011;24035;48.900;9.188;2023-04-29T14:20:27;4.10;;;2.28;;
38238;SDS011;24035;48.900;9.188;2023-04-29T14:23:13;5.25;;;2.85;;
38238;SDS011;24035;48.900;9.188;2023-04-29T14:25:59;5.18;;;2.70;;
38238;SDS011;24035;48.900;9.188;2023-04-29T14:28:45;6.45;;;2.53;;
38238;SDS011;24035;48.900;9.188;2023-04-29T14:31:34;6.22;;;2.85;;
38238;SDS011;24035;48.900;9.188;2023-04-29T14:34:22;7.07;;;3.10;;
38238;SDS011;24035;48.900;9.188;2023-04-29T14:37:08;4.88;;;2.50;;
38238;SDS011;24035;48.900;9.188;2023-04-29T14:39:54;5.00;;;2.45;;
38238;SDS011;24035;48.900;9.188;2023-04-29T14:42:39;5.63;;;3.08;;
38238;SDS011;24035;48.900;9.188;2023-04-29T14:45:25;4.80;;;2.33;;
38238;SDS011;24035;48.900;9.188;2023-04-29T14:48:12;7.03;;;3.30;;
38238;SDS011;24035;48.900;9.188;2023-04-29T14:50:58;5.00;;;2.60;;
38238;SDS011;24035;48.900;9.188;2023-04-29T14:53:44;7.68;;;3.15;;
38238;SDS011;24035;48.900;9.188;2023-04-29T14:56:30;5.57;;;2.90;;
38238;SDS011;24035;48.900;9.188;2023-04-29T14:59:15;5.78;;;2.88;;
38238;SDS011;24035;48.900;9.188;2023-04-29T15:02:01;6.07;;;2.90;;
38238;SDS011;24035;48.900;9.188;2023-04-29T15:04:48;6.20;;;2.70;;
38238;SDS011;24035;48.900;9.188;2023-04-29T15:07:34;5.50;;;2.63;;
38238;SDS011;24035;48.900;9.188;2023-04-29T15:10:20;5.82;;;2.90;;
38238;SDS011;24035;48.900;9.188;2023-04-29T15:13:06;6.90;;;2.80;;
38238;SDS011;24035;48.900;9.188;2023-04-29T15:15:52;6.75;;;2.55;;
38238;SDS011;24035;48.900;9.188;2023-04-29T15:18:37;8.50;;;3.10;;
38238;SDS011;24035;48.900;9.188;2023-04-29T15:21:24;6.72;;;2.38;;
38238;SDS011;24035;48.900;9.188;2023-04-29T15:24:11;5.75;;;3.08;;
38238;SDS011;24035;48.900;9.188;2023-04-29T15:26:57;4.80;;;2.53;;
38238;SDS011;24035;48.900;9.188;2023-04-29T15:29:43;5.93;;;2.70;;
38238;SDS011;24035;48.900;9.188;2023-04-29T15:32:28;6.55;;;2.50;;
38238;SDS011;24035;48.900;9.188;2023-04-29T15:35:17;5.03;;;2.45;;
38238;SDS011;24035;48.900;9.188;2023-04-29T15:38:03;5.90;;;2.47;;
38238;SDS011;24035;48.900;9.188;2023-04-29T15:40:49;5.78;;;2.75;;
38238;SDS011;24035;48.900;9.188;2023-04-29T15:43:35;5.97;;;2.63;;
38238;SDS011;24035;48.900;9.188;2023-04-29T15:46:21;6.28;;;2.83;;
38238;SDS011;24035;48.900;9.188;2023-04-29T15:49:07;4.68;;;2.47;;
38238;SDS011;24035;48.900;9.188;2023-04-29T15:51:53;4.70;;;2.33;;
38238;SDS011;24035;48.900;9.188;2023-04-29T15:54:39;4.88;;;2.25;;
38238;SDS011;24035;48.900;9.188;2023-04-29T15:57:25;5.10;;;2.53;;
38238;SDS011;24035;48.900;9.188;2023-04-29T16:00:11;4.88;;;2.53;;
38238;SDS011;24035;48.900;9.188;2023-04-29T16:02:57;5.13;;;2.38;;
38238;SDS011;24035;48.900;9.188;2023-04-29T16:05:43;5.10;;;2.25;;
38238;SDS011;24035;48.900;9.188;2023-04-29T16:08:29;7.15;;;2.72;;
38238;SDS011;24035;48.900;9.188;2023-04-29T16:11:15;5.20;;;2.45;;
38238;SDS011;24035;48.900;9.188;2023-04-29T16:14:02;6.03;;;2.90;;
38238;SDS011;24035;48.900;9.188;2023-04-29T16:16:47;5.68;;;2.65;;
38238;SDS011;24035;48.900;9.188;2023-04-29T16:19:34;5.82;;;2.47;;
38238;SDS011;24035;48.900;9.188;2023-04-29T16:22:20;4.80;;;2.60;;
38238;SDS011;24035;48.900;9.188;2023-04-29T16:25:06;5.00;;;2.33;;
38238;SDS011;24035;48.900;9.188;2023-04-29T16:27:52;5.25;;;2.58;;
38238;SDS011;24035;48.900;9.188;2023-04-29T16:30:38;5.35;;;2.50;;
38238;SDS011;24035;48.900;9.188;2023-04-29T16:33:24;5.15;;;2.20;;
38238;SDS011;24035;48.900;9.188;2023-04-29T16:36:10;6.28;;;2.50;;
38238;SDS011;24035;48.900;9.188;2023-04-29T16:38:56;5.68;;;2.20;;
38238;SDS011;24035;48.900;9.188;2023-04-29T16:41:42;5.18;;;2.28;;
38238;SDS011;24035;48.900;9.188;2023-04-29T16:44:28;5.72;;;2.20;;
38238;SDS011;24035;48.900;9.188;2023-04-29T16:47:14;4.80;;;1.90;;
38238;SDS011;24035;48.900;9.188;2023-04-29T16:50:00;4.70;;;2.03;;
38238;SDS011;24035;48.900;9.188;2023-04-29T16:52:46;6.28;;;2.80;;
38238;SDS011;24035;48.900;9.188;2023-04-29T16:55:32;5.93;;;2.42;;
38238;SDS011;24035;48.900;9.188;2023-04-29T16:58:18;5.30;;;2.38;;
38238;SDS011;24035;48.900;9.188;2023-04-29T17:01:04;9.20;;;2.95;;
38238;SDS011;24035;48.900;9.188;2023-04-29T17:03:51;5.47;;;2.75;;